Time;durP1;ratioP1;P1;durP2;ratioP2;P2;SDS_P1;SDS_P2;PMS_P1;PMS_P2;Temp;Humidity;BMP_temperature;BMP_pressure;BME280_temperature;BME280_humidity;BME280_pressure;Samples;Min_cycle;Max_cycle;Signal;HPM_P1;HPM_P2
2021/03/08 00:00:15;;;;;;;0.95;0.95;;;;;;;-1.61;64.06;93538.44;5091906;28;20027;-49
2021/03/08 00:02:41;;;;;;;1.20;1.10;;;;;;;-1.68;63.61;93543.47;5092027;28;20032;-49
2021/03/08 00:05:08;;;;;;;1.83;1.67;;;;;;;-2.16;66.89;93529.38;5091872;28;20080;-50
2021/03/08 00:07:33;;;;;;;2.85;2.65;;;;;;;-2.09;67.08;93537.13;5091884;28;20020;-51
2021/03/08 00:09:59;;;;;;;2.33;2.20;;;;;;;-2.35;66.94;93522.66;5091797;28;20034;-50
2021/03/08 00:12:24;;;;;;;0.13;0.13;;;;;;;-2.27;67.11;93529.19;5091554;28;20024;-50
2021/03/08 00:14:49;;;;;;;0.50;0.50;;;;;;;-2.18;66.25;93536.47;5091702;28;20119;-51
2021/03/08 00:17:16;;;;;;;2.83;1.52;;;;;;;-2.13;65.96;93527.72;5091610;28;20062;-50
2021/03/08 00:19:42;;;;;;;0.85;0.85;;;;;;;-2.09;65.37;93530.97;5091602;28;20039;-50
2021/03/08 00:22:07;;;;;;;0.32;0.32;;;;;;;-1.91;65.33;93522.69;5091705;28;20024;-51
2021/03/08 00:24:32;;;;;;;0.93;0.93;;;;;;;-1.88;65.43;93519.03;5091707;28;20028;-51
2021/03/08 00:26:58;;;;;;;1.42;1.35;;;;;;;-1.89;64.61;93522.97;5091616;28;20047;-52
2021/03/08 00:29:25;;;;;;;0.30;0.30;;;;;;;-2.09;65.78;93515.50;5091710;28;20027;-50
2021/03/08 00:31:50;;;;;;;1.95;1.77;;;;;;;-2.03;65.70;93510.91;5091334;28;20024;-49
2021/03/08 00:34:15;;;;;;;0.80;0.80;;;;;;;-2.27;66.19;93512.94;5090320;28;20028;-49
2021/03/08 00:36:41;;;;;;;0.73;0.73;;;;;;;-2.47;66.63;93510.88;5091325;28;20020;-52
2021/03/08 00:39:06;;;;;;;1.30;1.20;;;;;;;-2.30;66.16;93511.91;5091338;28;20048;-49
2021/03/08 00:41:32;;;;;;;0.40;0.40;;;;;;;-2.76;67.01;93494.59;5091402;28;20023;-50
2021/03/08 00:43:57;;;;;;;1.55;1.45;;;;;;;-2.62;66.73;93496.59;5091419;28;20082;-48
2021/03/08 00:46:23;;;;;;;1.30;1.20;;;;;;;-2.73;66.48;93480.16;5091508;28;20474;-48
2021/03/08 00:48:48;;;;;;;0.65;0.65;;;;;;;-2.58;66.25;93491.03;5091384;28;20039;-51
2021/03/08 00:51:14;;;;;;;1.30;1.23;;;;;;;-2.80;65.79;93458.16;5091210;28;20038;-47
2021/03/08 00:53:39;;;;;;;1.05;1.05;;;;;;;-2.39;65.79;93487.69;5091109;28;20067;-49
2021/03/08 00:56:05;;;;;;;1.45;1.45;;;;;;;-2.44;65.09;93484.88;5091349;28;20071;-49
2021/03/08 00:58:30;;;;;;;0.50;0.50;;;;;;;-2.43;66.15;93478.28;5091277;28;20115;-54
2021/03/08 01:00:56;;;;;;;0.38;0.38;;;;;;;-2.40;65.73;93486.19;5091280;28;20031;-53
2021/03/08 01:03:21;;;;;;;1.33;1.23;;;;;;;-2.21;65.74;93473.25;5091277;28;20456;-51
2021/03/08 01:05:47;;;;;;;0.63;0.63;;;;;;;-2.17;65.71;93479.22;5091249;28;20499;-49
2021/03/08 01:08:12;;;;;;;1.75;1.58;;;;;;;-2.34;65.88;93473.50;5091193;28;20032;-47
2021/03/08 01:10:38;;;;;;;0.43;0.43;;;;;;;-2.42;66.36;93463.53;5091141;28;20019;-51
2021/03/08 01:13:03;;;;;;;1.00;1.00;;;;;;;-2.51;66.23;93467.06;5091194;28;20029;-50
2021/03/08 01:15:29;;;;;;;0.82;0.82;;;;;;;-2.65;66.18;93464.34;5091069;28;20097;-48
2021/03/08 01:17:54;;;;;;;0.55;0.55;;;;;;;-2.77;66.21;93459.97;5090998;28;20035;-52
2021/03/08 01:20:20;;;;;;;0.82;0.70;;;;;;;-2.92;66.70;93454.50;5091209;28;20063;-48
2021/03/08 01:22:46;;;;;;;1.33;1.33;;;;;;;-2.78;66.43;93458.44;5091114;28;20024;-50
2021/03/08 01:25:17;;;;;;;2.42;2.33;;;;;;;-2.66;66.75;93455.47;5091023;28;20386;-51
2021/03/08 01:27:43;;;;;;;1.85;1.75;;;;;;;-2.60;66.02;93445.50;5091004;28;20028;-47
2021/03/08 01:30:11;;;;;;;5.95;1.60;;;;;;;-2.73;66.96;93438.91;5091919;28;20070;-48
2021/03/08 01:32:36;;;;;;;0.47;0.47;;;;;;;-2.51;65.99;93434.63;5094384;28;20481;-50
2021/03/08 01:35:02;;;;;;;2.00;1.90;;;;;;;-2.84;65.83;93436.75;5094462;28;20028;-49
2021/03/08 01:37:28;;;;;;;0.43;0.43;;;;;;;-3.07;65.66;93402.41;5094502;28;20024;-51
2021/03/08 01:39:53;;;;;;;1.58;1.52;;;;;;;-2.84;65.50;93436.75;5094307;28;20052;-48
2021/03/08 01:42:19;;;;;;;0.73;0.73;;;;;;;-2.76;64.44;93434.41;5094400;28;20026;-49
2021/03/08 01:44:44;;;;;;;0.40;0.40;;;;;;;-2.85;64.14;93415.56;5094358;28;20154;-50
2021/03/08 01:47:10;;;;;;;2.70;1.55;;;;;;;-3.26;65.81;93423.41;5094525;28;20030;-48
2021/03/08 01:49:35;;;;;;;1.33;1.25;;;;;;;-3.15;66.47;93426.34;5094223;28;20191;-52
2021/03/08 01:52:00;;;;;;;0.57;0.50;;;;;;;-3.07;66.19;93430.16;5094129;28;20020;-48
2021/03/08 01:54:26;;;;;;;0.93;0.93;;;;;;;-2.92;65.29;93421.38;5094342;28;20024;-48
2021/03/08 01:56:52;;;;;;;1.60;1.40;;;;;;;-2.92;64.74;93418.66;5093107;28;20028;-48
2021/03/08 01:59:18;;;;;;;0.73;0.73;;;;;;;-2.97;65.91;93411.19;5092950;28;20389;-48
2021/03/08 02:01:43;;;;;;;1.17;1.08;;;;;;;-2.78;64.98;93421.38;5092875;28;20106;-50
2021/03/08 02:04:09;;;;;;;0.70;0.70;;;;;;;-2.81;64.41;93419.59;5094161;28;20024;-47
2021/03/08 02:06:34;;;;;;;2.13;1.67;;;;;;;-2.68;64.92;93417.38;5093933;28;20536;-48
2021/03/08 02:09:00;;;;;;;2.63;1.60;;;;;;;-2.70;64.88;93417.09;5093974;28;20043;-47
2021/03/08 02:11:25;;;;;;;5.18;1.80;;;;;;;-2.73;64.85;93414.59;5094272;28;20550;-49
2021/03/08 02:13:59;;;;;;;0.45;0.45;;;;;;;-2.74;65.63;93421.19;5093856;28;20024;-52
2021/03/08 02:16:31;;;;;;;1.42;1.33;;;;;;;-2.96;66.21;93420.78;5093773;28;20492;-50
2021/03/08 02:18:56;;;;;;;0.70;0.70;;;;;;;-2.99;65.82;93422.47;5093751;28;20023;-50
2021/03/08 02:21:52;;;;;;;1.33;1.23;;;;;;;-3.09;65.42;93412.94;5093921;28;20040;-47
2021/03/08 02:24:45;;;;;;;2.72;2.53;;;;;;;-3.15;64.95;93420.19;5093670;28;20067;-47
2021/03/08 02:27:37;;;;;;;0.57;0.57;;;;;;;-3.31;65.74;93417.88;5093624;28;20102;-50
2021/03/08 02:30:22;;;;;;;0.70;0.70;;;;;;;-3.07;65.16;93416.66;5092471;28;20032;-47
2021/03/08 02:32:49;;;;;;;0.75;0.75;;;;;;;-3.23;65.60;93413.66;5092270;28;20024;-48
2021/03/08 02:35:19;;;;;;;0.68;0.63;;;;;;;-3.36;65.38;93413.13;5092184;28;20024;-47
2021/03/08 02:37:52;;;;;;;0.98;0.98;;;;;;;-3.45;65.98;93411.25;5090654;28;20142;-46
2021/03/08 02:40:21;;;;;;;0.57;0.57;;;;;;;-3.39;66.69;93403.25;5092062;28;20046;-49
2021/03/08 02:42:51;;;;;;;0.68;0.68;;;;;;;-3.22;66.76;93404.31;5091068;28;20052;-48
2021/03/08 02:45:17;;;;;;;1.48;1.15;;;;;;;-3.17;66.17;93399.06;5091929;28;20096;-49
2021/03/08 02:47:45;;;;;;;2.83;1.48;;;;;;;-3.29;64.41;93385.81;5092119;28;20028;-48
2021/03/08 02:50:13;;;;;;;2.65;0.47;;;;;;;-3.43;65.33;93400.75;5093135;28;20035;-48
2021/03/08 02:52:43;;;;;;;0.52;0.52;;;;;;;-3.44;66.27;93388.44;5092035;28;20108;-48
2021/03/08 02:55:10;;;;;;;0.85;0.85;;;;;;;-3.27;66.03;93405.72;5093167;28;20024;-48
2021/03/08 02:57:39;;;;;;;0.90;0.90;;;;;;;-3.30;66.45;93395.84;5093059;28;20031;-46
2021/03/08 03:00:08;;;;;;;1.02;1.02;;;;;;;-3.02;65.21;93404.47;5091878;28;20093;-46
2021/03/08 03:02:34;;;;;;;1.60;1.07;;;;;;;-2.96;65.23;93404.56;5092984;28;20036;-48
2021/03/08 03:05:05;;;;;;;1.08;0.93;;;;;;;-3.07;65.37;93400.47;5091889;28;20338;-48
2021/03/08 03:07:33;;;;;;;0.35;0.35;;;;;;;-3.55;66.51;93398.28;5091757;28;20051;-51
2021/03/08 03:09:59;;;;;;;1.92;1.83;;;;;;;-3.67;65.62;93410.03;5091532;28;20520;-51
2021/03/08 03:12:25;;;;;;;0.98;0.98;;;;;;;-3.49;65.08;93409.94;5091495;28;20031;-47
2021/03/08 03:14:52;;;;;;;1.30;1.00;;;;;;;-3.52;64.74;93406.19;5091424;28;20410;-48
2021/03/08 03:17:19;;;;;;;0.30;0.30;;;;;;;-3.41;65.26;93398.31;5091496;28;20039;-46
2021/03/08 03:19:50;;;;;;;1.88;1.77;;;;;;;-3.39;65.96;93398.59;5091277;28;20020;-47
2021/03/08 03:22:21;;;;;;;1.55;1.15;;;;;;;-3.50;65.57;93398.38;5091309;28;20023;-49
2021/03/08 03:24:48;;;;;;;0.35;0.35;;;;;;;-3.61;65.70;93400.84;5092716;28;20123;-48
2021/03/08 03:27:14;;;;;;;5.15;2.05;;;;;;;-3.73;65.37;93388.34;5092627;28;20031;-49
2021/03/08 03:29:40;;;;;;;1.30;1.20;;;;;;;-3.93;65.17;93378.09;5091289;28;20036;-48
2021/03/08 03:32:06;;;;;;;0.40;0.40;;;;;;;-3.81;66.47;93391.84;5091176;28;20036;-51
2021/03/08 03:34:32;;;;;;;4.68;1.15;;;;;;;-3.83;65.05;93381.50;5091150;28;20028;-46
2021/03/08 03:36:58;;;;;;;3.65;3.22;;;;;;;-3.95;66.19;93383.22;5090988;28;20032;-49
2021/03/08 03:39:24;;;;;;;0.30;0.30;;;;;;;-3.86;65.81;93382.41;5092180;28;20448;-48
2021/03/08 03:41:49;;;;;;;0.80;0.80;;;;;;;-3.72;65.76;93372.88;5092336;28;20032;-47
2021/03/08 03:44:15;;;;;;;0.50;0.50;;;;;;;-3.78;66.03;93366.63;5090924;28;20114;-47
2021/03/08 03:46:46;;;;;;;1.23;1.23;;;;;;;-3.67;65.51;93373.00;5090765;28;20039;-47
2021/03/08 03:49:16;;;;;;;0.47;0.47;;;;;;;-3.71;65.67;93375.13;5092259;28;20095;-48
2021/03/08 03:51:42;;;;;;;0.73;0.73;;;;;;;-3.79;65.24;93374.00;5092116;28;20028;-46
2021/03/08 03:54:08;;;;;;;0.20;0.20;;;;;;;-4.05;66.36;93364.84;5091594;28;20035;-46
2021/03/08 03:56:34;;;;;;;0.40;0.40;;;;;;;-4.04;65.63;93374.41;5091097;28;20024;-49
2021/03/08 03:59:08;;;;;;;0.75;0.75;;;;;;;-4.06;64.86;93377.56;5090694;28;20046;-46
2021/03/08 04:01:36;;;;;;;0.77;0.77;;;;;;;-4.08;64.69;93373.84;5090836;28;20507;-47
2021/03/08 04:04:13;;;;;;;0.90;0.90;;;;;;;-4.22;66.10;93379.91;5090763;28;20031;-46
2021/03/08 04:06:43;;;;;;;0.85;0.85;;;;;;;-4.40;67.19;93380.72;5090738;28;20505;-49
2021/03/08 04:09:10;;;;;;;0.20;0.20;;;;;;;-4.18;66.69;93380.50;5090828;28;20032;-49
2021/03/08 04:11:38;;;;;;;0.88;0.88;;;;;;;-4.29;67.00;93372.16;5090561;28;20032;-47
2021/03/08 04:14:05;;;;;;;0.35;0.35;;;;;;;-4.29;66.96;93382.94;5090622;28;20093;-49
2021/03/08 04:16:31;;;;;;;2.00;1.85;;;;;;;-4.23;66.36;93381.84;5091697;28;20028;-47
2021/03/08 04:18:58;;;;;;;11.32;1.15;;;;;;;-4.22;66.17;93379.91;5091760;28;20031;-47
2021/03/08 04:21:24;;;;;;;1.27;1.27;;;;;;;-4.35;66.42;93382.06;5090576;28;20031;-49
2021/03/08 04:23:50;;;;;;;0.85;0.85;;;;;;;-4.26;65.59;93382.75;5091610;28;20466;-48
2021/03/08 04:26:16;;;;;;;0.65;0.65;;;;;;;-4.37;66.61;93363.63;5091693;28;20462;-48
2021/03/08 04:28:42;;;;;;;1.17;1.02;;;;;;;-4.12;66.44;93381.34;5090537;28;20031;-50
2021/03/08 04:31:08;;;;;;;0.47;0.47;;;;;;;-4.10;66.35;93376.25;5090351;28;20024;-47
2021/03/08 04:33:33;;;;;;;2.35;2.20;;;;;;;-4.23;66.50;93376.47;5090265;28;20024;-47
2021/03/08 04:35:59;;;;;;;0.68;0.68;;;;;;;-4.14;66.57;93386.44;5091483;28;20565;-48
2021/03/08 04:38:26;;;;;;;0.52;0.52;;;;;;;-4.01;65.68;93373.50;5090022;28;20127;-47
2021/03/08 04:40:52;;;;;;;2.72;1.85;;;;;;;-4.14;65.42;93386.44;5090286;28;20020;-46
2021/03/08 04:43:18;;;;;;;1.75;1.25;;;;;;;-4.03;65.33;93384.00;5090375;28;20095;-45
2021/03/08 04:45:43;;;;;;;1.58;1.48;;;;;;;-3.99;65.33;93379.94;5090222;28;20533;-46
2021/03/08 04:48:09;;;;;;;0.82;0.82;;;;;;;-4.21;65.84;93384.09;5091411;28;20081;-47
2021/03/08 04:50:35;;;;;;;0.25;0.25;;;;;;;-4.43;66.50;93386.25;5090143;28;20472;-49
2021/03/08 04:53:01;;;;;;;1.27;1.13;;;;;;;-4.28;67.05;93381.72;5090027;28;20089;-46
2021/03/08 04:55:27;;;;;;;0.98;0.85;;;;;;;-4.51;67.02;93385.09;5091397;28;20032;-47
2021/03/08 04:57:53;;;;;;;0.98;0.98;;;;;;;-4.28;66.83;93393.25;5090074;28;20134;-49
2021/03/08 05:00:19;;;;;;;3.75;2.55;;;;;;;-4.31;67.30;93385.31;5091057;28;20051;-48
2021/03/08 05:02:45;;;;;;;0.30;0.30;;;;;;;-4.48;67.37;93384.91;5089966;28;20053;-50
2021/03/08 05:05:12;;;;;;;1.42;1.30;;;;;;;-4.40;65.83;93390.75;5091221;28;20028;-47
2021/03/08 05:07:42;;;;;;;1.33;0.88;;;;;;;-4.50;65.53;93392.00;5093894;28;20119;-48
2021/03/08 05:10:15;;;;;;;1.23;1.17;;;;;;;-4.45;65.86;93386.72;5095070;28;20032;-46
2021/03/08 05:12:41;;;;;;;0.65;0.65;;;;;;;-4.23;66.74;93392.63;5095156;28;20414;-46
2021/03/08 05:15:09;;;;;;;2.13;1.45;;;;;;;-4.07;66.34;93389.56;5095091;28;20024;-46
2021/03/08 05:17:35;;;;;;;1.30;0.50;;;;;;;-4.11;65.99;93390.91;5095111;28;20037;-49
2021/03/08 05:20:02;;;;;;;1.95;1.67;;;;;;;-4.14;65.41;93383.75;5093640;28;20032;-51
2021/03/08 05:22:28;;;;;;;1.30;1.30;;;;;;;-4.09;65.65;93389.25;5094770;28;20032;-49
2021/03/08 05:24:53;;;;;;;2.15;2.03;;;;;;;-4.12;66.00;93384.03;5093512;28;20024;-51
2021/03/08 05:27:19;;;;;;;1.77;1.67;;;;;;;-4.01;65.16;93382.34;5094843;28;20521;-48
2021/03/08 05:29:46;;;;;;;4.22;2.60;;;;;;;-4.16;64.85;93357.25;5094668;28;20116;-47
2021/03/08 05:32:20;;;;;;;4.80;2.67;;;;;;;-3.80;65.23;93385.22;5093640;28;20036;-47
2021/03/08 05:34:48;;;;;;;0.82;0.82;;;;;;;-3.74;65.34;93381.44;5093619;28;20398;-46
2021/03/08 05:37:15;;;;;;;10.82;3.05;;;;;;;-3.91;65.78;93381.09;5094505;28;20028;-48
2021/03/08 05:39:42;;;;;;;2.00;1.90;;;;;;;-3.86;65.89;93390.50;5094332;28;20119;-49
2021/03/08 05:42:11;;;;;;;3.13;3.03;;;;;;;-3.73;66.25;93384.88;5093291;28;20028;-48
2021/03/08 05:45:09;;;;;;;2.15;2.05;;;;;;;-3.86;66.39;93391.25;5094543;28;20035;-48
2021/03/08 05:48:12;;;;;;;2.72;2.60;;;;;;;-3.68;66.57;93395.06;5094458;28;20028;-48
2021/03/08 05:51:09;;;;;;;0.95;0.95;;;;;;;-3.63;66.71;93397.84;5031989;28;20029;-47
2021/03/08 05:54:12;;;;;;;2.00;1.85;;;;;;;-3.53;67.59;93401.97;5110083;28;20036;-49
2021/03/08 05:57:14;;;;;;;2.75;2.55;;;;;;;-3.56;68.45;93399.47;5094207;28;20039;-48
2021/03/08 05:59:52;;;;;;;5.55;1.23;;;;;;;-3.50;68.50;93394.94;5094005;28;20027;-50
2021/03/08 06:02:43;;;;;;;3.47;3.25;;;;;;;-3.27;68.31;93394.19;5094211;28;20447;-51
2021/03/08 06:05:36;;;;;;;3.85;3.15;;;;;;;-3.00;67.75;93393.19;5093117;28;20118;-49
2021/03/08 06:08:20;;;;;;;2.17;2.10;;;;;;;-2.86;67.31;93381.69;5094117;28;20035;-46
2021/03/08 06:11:09;;;;;;;1.95;1.85;;;;;;;-2.80;68.17;93385.97;5093836;28;20036;-48
2021/03/08 06:14:04;;;;;;;;;;;;;;;-2.66;68.59;93390.63;5094426;28;20024;-50
2021/03/08 06:16:35;;;;;;;6.32;1.83;;;;;;;-2.37;67.12;93387.19;5080141;28;19999;-50
2021/03/08 06:19:04;;;;;;;4.88;4.47;;;;;;;-2.03;66.10;93396.56;5093843;28;20032;-46
2021/03/08 06:21:36;;;;;;;5.93;4.57;;;;;;;-1.81;65.07;93365.16;5093958;28;20085;-49
2021/03/08 06:24:04;;;;;;;9.05;3.63;;;;;;;-1.02;63.10;93368.34;5093617;28;20028;-49
2021/03/08 06:26:31;;;;;;;3.90;3.67;;;;;;;-0.36;62.25;93391.91;5093668;28;20416;-53
2021/03/08 06:28:57;;;;;;;4.40;3.53;;;;;;;0.14;61.13;93395.03;5093649;28;20692;-50
2021/03/08 06:31:25;;;;;;;3.58;3.35;;;;;;;0.96;59.24;93397.47;5093706;28;20036;-50
2021/03/08 06:46:28;;;;;;;3.50;3.20;;;;;;;8.08;40.75;93395.56;5129905;27;20140;-44
2021/03/08 06:48:53;;;;;;;7.45;3.88;;;;;;;7.95;40.11;93396.34;5109195;28;20060;-46
2021/03/08 06:51:19;;;;;;;3.00;2.80;;;;;;;8.54;39.57;93400.28;5108079;28;20526;-45
2021/03/08 06:53:46;;;;;;;3.15;1.98;;;;;;;9.52;37.92;93392.00;5108974;28;20396;-45
2021/03/08 06:56:17;;;;;;;6.72;2.78;;;;;;;10.12;36.37;93394.31;5109262;28;20030;-45
2021/03/08 06:59:01;;;;;;;4.55;4.15;;;;;;;10.45;34.56;93388.50;5108997;28;20089;-44
2021/03/08 07:01:29;;;;;;;6.65;3.42;;;;;;;11.58;34.47;93395.28;5108058;28;20520;-46
2021/03/08 07:03:56;;;;;;;9.82;4.82;;;;;;;12.27;31.51;93399.31;5109050;28;20023;-45
2021/03/08 07:06:22;;;;;;;6.38;5.20;;;;;;;12.86;30.90;93403.03;5109059;28;20077;-44
2021/03/08 07:08:47;;;;;;;5.05;3.25;;;;;;;13.13;30.40;93386.59;5108949;28;20470;-45
2021/03/08 07:11:15;;;;;;;4.68;3.03;;;;;;;12.94;30.72;93403.72;5107657;28;20568;-46
2021/03/08 07:13:40;;;;;;;4.53;2.30;;;;;;;13.45;30.25;93397.59;5108700;28;20042;-46
2021/03/08 07:16:06;;;;;;;2.15;1.65;;;;;;;14.01;29.44;93398.69;5108895;28;20503;-45
2021/03/08 07:18:31;;;;;;;2.35;2.17;;;;;;;14.11;29.85;93388.38;5107510;28;20015;-45
2021/03/08 07:21:12;;;;;;;13.73;8.20;;;;;;;15.15;28.56;93396.59;5108650;28;20016;-44
2021/03/08 07:23:38;;;;;;;9.68;5.20;;;;;;;15.41;28.06;93388.78;5108511;28;20035;-44
2021/03/08 07:26:05;;;;;;;4.22;3.85;;;;;;;16.12;26.92;93394.75;5108460;28;20098;-44
2021/03/08 07:28:30;;;;;;;7.72;4.93;;;;;;;16.38;26.04;93391.06;5108495;28;20058;-45
2021/03/08 07:30:56;;;;;;;5.22;2.55;;;;;;;17.13;26.17;93386.66;5107215;28;20051;-42
2021/03/08 07:33:23;;;;;;;5.63;3.22;;;;;;;17.18;25.21;93377.22;5108371;28;20024;-44
2021/03/08 07:35:51;;;;;;;2.13;1.95;;;;;;;17.59;24.01;93382.78;5108438;28;20504;-45
2021/03/08 07:38:29;;;;;;;4.80;3.80;;;;;;;17.51;24.42;93380.19;5108294;28;20496;-46
2021/03/08 07:41:14;;;;;;;3.08;2.40;;;;;;;18.05;23.63;93378.22;5108344;28;20110;-46
2021/03/08 07:43:44;;;;;;;2.33;2.17;;;;;;;18.54;22.75;93370.16;5108156;28;20097;-46
2021/03/08 07:46:33;;;;;;;5.55;3.58;;;;;;;18.84;21.85;93370.00;5119822;28;20464;-45
2021/03/08 07:49:01;;;;;;;3.75;2.15;;;;;;;19.11;22.26;93372.34;5114799;28;20032;-43
2021/03/08 07:51:27;;;;;;;4.57;3.40;;;;;;;19.67;21.20;93349.84;5114930;28;20034;-44
2021/03/08 07:54:06;;;;;;;2.05;1.63;;;;;;;19.16;21.24;93360.09;5114687;28;20023;-45
2021/03/08 07:56:33;;;;;;;4.32;1.80;;;;;;;19.22;21.75;93360.44;5114864;28;20077;-45
2021/03/08 07:58:59;;;;;;;2.67;1.50;;;;;;;18.78;22.65;93357.69;5114764;28;20024;-46
2021/03/08 08:01:25;;;;;;;5.72;3.03;;;;;;;18.96;21.81;93349.72;5114682;28;20365;-46
2021/03/08 08:03:52;;;;;;;5.00;1.77;;;;;;;18.71;22.48;93344.69;5096442;28;20491;-49
2021/03/08 08:06:20;;;;;;;3.03;2.17;;;;;;;19.88;20.84;93360.19;5096569;28;20448;-45
2021/03/08 08:08:48;;;;;;;4.03;2.33;;;;;;;20.73;20.67;93352.44;5114596;28;20027;-45
2021/03/08 08:11:14;;;;;;;1.88;1.77;;;;;;;20.95;19.55;93352.91;5114589;28;20023;-43
2021/03/08 08:13:53;;;;;;;4.55;3.05;;;;;;;18.85;21.95;93351.16;5096252;28;20106;-47
2021/03/08 08:16:22;;;;;;;4.20;2.65;;;;;;;19.58;21.16;93350.72;5114394;28;20034;-45
2021/03/08 08:18:47;;;;;;;;;;;;;;;20.76;20.01;93348.41;5114695;28;20423;-44
2021/03/08 08:21:18;;;;;;;3.22;2.03;;;;;;;21.39;20.17;93349.72;5096103;28;19904;-43
2021/03/08 08:23:46;;;;;;;3.83;2.45;;;;;;;21.30;19.24;93350.63;5114365;28;20059;-41
2021/03/08 08:26:14;;;;;;;3.83;3.13;;;;;;;21.29;19.93;93345.66;5114137;28;20034;-44
2021/03/08 08:28:40;;;;;;;2.33;1.67;;;;;;;21.41;19.88;93341.38;5114307;28;20085;-42
2021/03/08 08:31:06;;;;;;;2.50;2.10;;;;;;;22.21;18.01;93344.06;5096008;28;20030;-44
2021/03/08 08:33:33;;;;;;;1.70;1.27;;;;;;;22.38;18.27;93338.59;5114157;28;20049;-43
2021/03/08 08:36:18;;;;;;;1.98;1.88;;;;;;;21.02;18.96;93335.78;5113918;28;20048;-41
2021/03/08 08:38:52;;;;;;;2.25;2.00;;;;;;;22.18;18.36;93331.22;5113984;28;20499;-43
2021/03/08 08:41:27;;;;;;;3.53;2.65;;;;;;;22.14;18.36;93331.03;5113907;28;20028;-43
2021/03/08 08:44:07;;;;;;;3.05;2.78;;;;;;;22.73;18.49;93321.28;5113792;28;20097;-43
2021/03/08 08:46:34;;;;;;;6.30;4.03;;;;;;;22.39;18.31;93328.06;5071977;28;20037;-43
2021/03/08 08:49:18;;;;;;;4.47;2.42;;;;;;;23.31;17.81;93323.25;5073237;28;20420;-45
2021/03/08 08:51:54;;;;;;;1.85;1.48;;;;;;;23.14;17.72;93310.53;5073151;28;20542;-42
2021/03/08 08:54:49;;;;;;;1.50;1.13;;;;;;;23.99;16.61;93309.38;5072865;28;20028;-42
2021/03/08 08:57:14;;;;;;;3.22;2.63;;;;;;;24.06;17.42;93302.63;5068505;28;20041;-45
2021/03/08 08:59:48;;;;;;;3.22;2.50;;;;;;;24.12;16.92;93307.81;5072683;28;20027;-44
2021/03/08 09:02:20;;;;;;;1.48;1.38;;;;;;;23.09;17.96;93308.16;5072923;28;20408;-43
2021/03/08 09:04:45;;;;;;;1.45;1.10;;;;;;;23.25;17.59;93309.63;5072934;28;20024;-43
2021/03/08 09:07:18;;;;;;;1.33;1.20;;;;;;;23.70;17.22;93308.78;5072585;28;20089;-43
2021/03/08 09:09:47;;;;;;;3.53;1.98;;;;;;;23.51;17.39;93312.91;5072736;28;20103;-42
2021/03/08 09:13:11;;;;;;;1.10;0.95;;;;;;;23.62;17.14;93306.34;5072573;28;20052;-43
2021/03/08 09:15:43;;;;;;;0.93;0.77;;;;;;;24.34;16.69;93300.25;5063377;28;20055;-42
2021/03/08 09:18:09;;;;;;;1.25;0.98;;;;;;;24.80;16.29;93298.56;5072903;28;20116;-43
2021/03/08 09:20:35;;;;;;;1.83;1.65;;;;;;;25.38;15.50;93295.13;5072427;28;20066;-47
2021/03/08 09:23:03;;;;;;;3.20;2.35;;;;;;;24.60;16.27;93295.66;5072448;28;20111;-42
2021/03/08 09:25:32;;;;;;;5.85;2.28;;;;;;;24.17;16.31;93291.78;5072378;28;20523;-43
2021/03/08 09:27:58;;;;;;;2.88;1.83;;;;;;;24.89;16.28;93293.94;5072252;28;20021;-44
2021/03/08 09:30:25;;;;;;;3.03;1.90;;;;;;;24.53;15.89;93296.06;5072427;28;20031;-45
2021/03/08 09:33:13;;;;;;;1.40;1.30;;;;;;;24.45;16.12;93288.00;5072301;28;20051;-44
2021/03/08 09:35:49;;;;;;;2.13;1.33;;;;;;;23.51;16.77;93292.44;5072119;28;20013;-44
2021/03/08 09:38:19;;;;;;;3.20;2.67;;;;;;;23.69;16.60;93296.06;5072052;28;20037;-43
2021/03/08 09:40:50;;;;;;;2.28;2.08;;;;;;;23.04;17.18;93284.72;5072201;28;20130;-45
2021/03/08 09:43:20;;;;;;;1.40;1.30;;;;;;;22.42;17.54;93302.22;5072410;28;20112;-46
2021/03/08 09:45:55;;;;;;;2.97;1.55;;;;;;;22.39;18.39;93297.84;5101628;28;20066;-45
2021/03/08 09:48:21;;;;;;;1.48;1.38;;;;;;;22.72;18.34;93296.59;5112714;28;20027;-44
2021/03/08 09:50:47;;;;;;;2.05;1.67;;;;;;;23.07;17.60;93299.63;5112656;28;20161;-43
2021/03/08 09:53:12;;;;;;;1.08;0.98;;;;;;;22.88;17.27;93294.53;5112610;28;20506;-44
2021/03/08 09:55:38;;;;;;;1.50;1.38;;;;;;;22.92;17.14;93306.69;5093230;28;20077;-44
2021/03/08 09:58:12;;;;;;;1.55;1.38;;;;;;;22.49;17.37;93295.53;5112520;28;20031;-45
2021/03/08 10:00:38;;;;;;;2.35;1.58;;;;;;;22.89;16.92;93293.88;5112296;28;20032;-44
2021/03/08 10:03:06;;;;;;;4.50;2.88;;;;;;;22.25;18.87;93280.28;5112450;28;20031;-44
2021/03/08 10:05:49;;;;;;;3.70;2.20;;;;;;;22.85;18.06;93287.34;5112332;28;20020;-46
2021/03/08 10:08:19;;;;;;;3.55;1.95;;;;;;;23.14;17.21;93276.75;5112401;28;20020;-43
2021/03/08 10:10:49;;;;;;;2.90;1.75;;;;;;;23.55;17.41;93282.09;5093985;28;20023;-42
2021/03/08 10:13:16;;;;;;;1.60;1.02;;;;;;;24.16;16.69;93276.94;5112338;28;20503;-44
2021/03/08 10:15:44;;;;;;;3.05;0.93;;;;;;;22.14;17.40;93272.72;5093896;28;20026;-43
2021/03/08 10:18:10;;;;;;;1.60;1.00;;;;;;;21.95;19.05;93278.09;5112174;28;20028;-47
2021/03/08 10:20:47;;;;;;;1.15;0.77;;;;;;;22.87;16.19;93262.13;5112174;28;20023;-42
2021/03/08 10:23:32;;;;;;;3.60;1.67;;;;;;;21.77;17.40;93270.19;5112130;28;20461;-42
2021/03/08 10:26:05;;;;;;;2.17;1.05;;;;;;;21.25;18.35;93273.13;5112265;28;20023;-44
2021/03/08 10:28:49;;;;;;;1.75;1.58;;;;;;;22.41;17.77;93277.53;5112180;28;20043;-44
2021/03/08 10:31:25;;;;;;;0.68;0.68;;;;;;;22.45;16.79;93261.56;5112034;28;20023;-42
2021/03/08 10:34:08;;;;;;;1.05;0.70;;;;;;;23.59;16.02;93273.81;5111851;28;20043;-44
2021/03/08 10:36:36;;;;;;;0.68;0.68;;;;;;;23.32;16.08;93262.72;5094456;28;20508;-44
2021/03/08 10:39:05;;;;;;;1.10;1.03;;;;;;;21.62;16.47;93267.28;5111913;28;20024;-44
2021/03/08 10:41:31;;;;;;;1.58;0.93;;;;;;;22.98;15.55;93255.56;5112005;28;20657;-42
2021/03/08 10:44:00;;;;;;;1.27;0.85;;;;;;;22.76;15.56;93254.56;5111864;28;20034;-43
2021/03/08 10:46:29;;;;;;;;;;;;;;;23.60;15.28;93251.97;5094034;28;20523;-43
2021/03/08 10:48:59;;;;;;;2.72;1.10;;;;;;;23.07;15.85;93227.13;5094063;28;19929;-42
2021/03/08 10:51:25;;;;;;;1.02;0.98;;;;;;;22.99;14.67;93231.69;5112057;28;20521;-42
2021/03/08 10:54:01;;;;;;;3.97;2.00;;;;;;;22.96;15.02;93247.00;5111724;28;20051;-43
2021/03/08 10:56:28;;;;;;;0.93;0.75;;;;;;;22.12;15.26;93241.69;5111954;28;20462;-43
2021/03/08 10:58:54;;;;;;;0.65;0.65;;;;;;;21.62;14.92;93230.75;5111739;28;20102;-42
2021/03/08 11:01:20;;;;;;;2.80;1.63;;;;;;;22.21;15.09;93231.56;5111873;28;20138;-42
2021/03/08 11:03:45;;;;;;;1.70;1.35;;;;;;;22.53;14.70;93228.19;5111512;28;20049;-44
2021/03/08 11:06:12;;;;;;;1.25;0.95;;;;;;;23.00;13.67;93219.06;5111661;28;20024;-43
2021/03/08 11:08:40;;;;;;;2.28;1.40;;;;;;;21.15;13.39;93247.34;5111691;28;20015;-44
2021/03/08 11:11:15;;;;;;;1.88;0.65;;;;;;;21.26;12.92;93228.94;5111671;28;20034;-42
2021/03/08 11:13:41;;;;;;;0.50;0.50;;;;;;;21.60;14.66;93213.81;5111543;28;20430;-44
2021/03/08 11:16:12;;;;;;;0.57;0.57;;;;;;;22.12;14.18;93212.84;5111542;28;20027;-43
2021/03/08 11:18:38;;;;;;;0.70;0.70;;;;;;;21.88;14.33;93218.75;5111668;28;20062;-43
2021/03/08 11:21:23;;;;;;;0.90;0.90;;;;;;;22.17;13.71;93203.25;5094331;28;20097;-44
2021/03/08 11:23:49;;;;;;;2.05;0.85;;;;;;;22.26;14.89;93194.53;5115426;28;20099;-42
2021/03/08 11:26:15;;;;;;;1.80;1.38;;;;;;;22.07;14.26;93195.06;5115360;28;20027;-43
2021/03/08 11:28:41;;;;;;;1.75;1.02;;;;;;;21.53;15.03;93190.31;5115390;28;20026;-44
2021/03/08 11:31:18;;;;;;;0.63;0.63;;;;;;;21.28;15.14;93181.28;5115268;28;20079;-41
2021/03/08 11:33:47;;;;;;;0.95;0.80;;;;;;;21.30;15.32;93172.97;5115195;28;20453;-43
2021/03/08 11:36:13;;;;;;;0.73;0.57;;;;;;;21.37;15.36;93171.94;5115204;28;20027;-44
2021/03/08 11:38:38;;;;;;;0.85;0.73;;;;;;;21.84;14.38;93162.34;5115230;28;20076;-47
2021/03/08 11:41:04;;;;;;;2.17;0.98;;;;;;;21.09;14.79;93166.34;5115079;28;20480;-43
2021/03/08 11:43:32;;;;;;;2.08;0.70;;;;;;;20.98;15.62;93161.56;5096808;28;20019;-42
2021/03/08 11:45:57;;;;;;;1.10;1.00;;;;;;;20.52;15.12;93147.91;5114883;28;20043;-43
2021/03/08 11:48:24;;;;;;;7.03;0.95;;;;;;;20.15;15.70;93145.22;5114950;28;20097;-44
2021/03/08 11:50:49;;;;;;;8.57;1.48;;;;;;;19.84;15.99;93147.00;5114797;28;20016;-43
2021/03/08 11:53:15;;;;;;;0.68;0.68;;;;;;;20.16;15.32;93140.38;5115030;28;20019;-45
2021/03/08 11:55:41;;;;;;;0.65;0.65;;;;;;;19.28;15.08;93136.13;5114704;28;20541;-44
2021/03/08 11:58:06;;;;;;;3.03;1.05;;;;;;;19.40;16.05;93134.06;5114901;28;20028;-43